createdAt,value
2019-06-08T00:00:13.217Z,9.78
2019-06-08T00:02:41.538Z,9.63
2019-06-08T00:05:10.710Z,9.63
2019-06-08T00:07:39.286Z,8.38
2019-06-08T00:10:08.691Z,9.65
2019-06-08T00:12:37.272Z,9.98
2019-06-08T00:15:07.181Z,9.43
2019-06-08T00:17:38.812Z,9.65
2019-06-08T00:20:07.714Z,9.50
2019-06-08T00:22:36.447Z,9.73
2019-06-08T00:25:05.570Z,9.75
2019-06-08T00:27:34.303Z,9.68
2019-06-08T00:30:03.763Z,9.65
2019-06-08T00:32:32.652Z,9.53
2019-06-08T00:35:01.210Z,10.13
2019-06-08T00:37:29.790Z,10.10
2019-06-08T00:39:58.475Z,10.00
2019-06-08T00:42:27.208Z,10.00
2019-06-08T00:44:55.816Z,9.50
2019-06-08T00:47:24.725Z,9.53
2019-06-08T00:49:53.424Z,9.20
2019-06-08T00:52:23.178Z,10.08
2019-06-08T00:54:51.880Z,10.10
2019-06-08T00:57:21.726Z,10.35
2019-06-08T00:59:50.444Z,9.63
2019-06-08T01:02:20.353Z,9.63
2019-06-08T01:04:49.044Z,9.53
2019-06-08T01:07:17.983Z,9.45
2019-06-08T01:09:46.670Z,10.00
2019-06-08T01:12:15.271Z,9.35
2019-06-08T01:14:44.053Z,9.45
2019-06-08T01:17:12.744Z,9.78
2019-06-08T01:19:41.569Z,11.68
2019-06-08T01:22:10.165Z,10.05
2019-06-08T01:24:38.837Z,10.15
2019-06-08T01:27:07.435Z,9.25
2019-06-08T01:29:36.079Z,10.23
2019-06-08T01:32:04.747Z,10.45
2019-06-08T01:34:33.413Z,10.55
2019-06-08T01:37:02.082Z,10.08
2019-06-08T01:39:32.396Z,10.50
2019-06-08T01:42:01.111Z,10.90
2019-06-08T01:44:30.032Z,10.70
2019-06-08T01:46:58.794Z,11.25
2019-06-08T01:49:28.415Z,10.80
2019-06-08T01:51:56.940Z,10.63
2019-06-08T01:54:26.820Z,9.93
2019-06-08T01:56:55.481Z,10.08
2019-06-08T01:59:25.219Z,10.15
2019-06-08T02:01:53.942Z,10.55
2019-06-08T02:04:23.882Z,9.98
2019-06-08T02:06:52.617Z,9.98
2019-06-08T02:09:21.258Z,10.50
2019-06-08T02:11:49.838Z,10.00
2019-06-08T02:14:18.410Z,9.73
2019-06-08T02:16:47.050Z,9.68
2019-06-08T02:19:15.698Z,9.30
2019-06-08T02:21:44.286Z,9.73
2019-06-08T02:24:13.162Z,10.38
2019-06-08T02:26:41.830Z,9.75
2019-06-08T02:29:10.422Z,9.73
2019-06-08T02:31:39.202Z,9.35
2019-06-08T02:34:07.778Z,9.73
2019-06-08T02:36:37.909Z,9.30
2019-06-08T02:39:08.110Z,9.75
2019-06-08T02:41:37.522Z,9.75
2019-06-08T02:44:06.494Z,8.50
2019-06-08T02:46:35.989Z,9.53
2019-06-08T02:49:05.770Z,9.40
2019-06-08T02:51:36.472Z,9.20
2019-06-08T02:54:05.457Z,8.65
2019-06-08T02:56:36.715Z,9.70
2019-06-08T02:59:05.790Z,10.30
2019-06-08T03:01:35.966Z,9.80
2019-06-08T03:04:05.558Z,9.95
2019-06-08T03:06:36.763Z,9.40
2019-06-08T03:09:06.813Z,9.13
2019-06-08T03:11:36.899Z,9.08
2019-06-08T03:14:05.891Z,9.58
2019-06-08T03:16:35.916Z,9.15
2019-06-08T03:19:21.148Z,9.48
2019-06-08T03:21:36.271Z,9.13
2019-06-08T03:24:05.437Z,9.23
2019-06-08T03:26:34.313Z,8.90
2019-06-08T03:29:02.953Z,9.18
2019-06-08T03:31:34.459Z,8.90
2019-06-08T03:34:01.835Z,9.53
2019-06-08T03:36:30.479Z,9.50
2019-06-08T03:38:59.083Z,9.20
2019-06-08T03:41:27.709Z,9.23
2019-06-08T03:43:56.304Z,8.98
2019-06-08T03:46:24.910Z,8.73
2019-06-08T03:48:53.508Z,8.95
2019-06-08T03:51:22.065Z,8.38
2019-06-08T03:53:50.703Z,8.58
2019-06-08T03:56:19.296Z,8.70
2019-06-08T03:58:48.328Z,8.68
2019-06-08T04:01:17.361Z,8.55
2019-06-08T04:03:46.386Z,9.15
2019-06-08T04:06:15.198Z,9.70
2019-06-08T04:08:46.603Z,9.40
2019-06-08T04:11:14.132Z,9.00
2019-06-08T04:13:44.478Z,8.78
2019-06-08T04:16:13.052Z,7.85
2019-06-08T04:18:42.111Z,8.98
2019-06-08T04:21:10.801Z,8.20
2019-06-08T04:23:40.454Z,8.73
2019-06-08T04:26:09.686Z,8.10
2019-06-08T04:28:38.397Z,8.60
2019-06-08T04:31:07.025Z,8.65
2019-06-08T04:33:35.627Z,8.28
2019-06-08T04:36:04.365Z,8.65
2019-06-08T04:38:32.961Z,8.05
2019-06-08T04:41:01.526Z,8.80
2019-06-08T04:43:30.187Z,9.43
2019-06-08T04:45:58.742Z,8.50
2019-06-08T04:48:27.318Z,9.18
2019-06-08T04:50:55.965Z,10.70
2019-06-08T04:53:24.548Z,10.15
2019-06-08T04:55:53.280Z,8.75
2019-06-08T04:58:22.021Z,7.92
2019-06-08T05:00:51.053Z,8.85
2019-06-08T05:03:19.807Z,8.35
2019-06-08T05:05:50.168Z,8.18
2019-06-08T05:08:18.724Z,8.00
2019-06-08T05:10:47.537Z,8.05
2019-06-08T05:13:16.234Z,7.00
2019-06-08T05:15:45.416Z,8.15
2019-06-08T05:18:14.191Z,8.38
2019-06-08T05:20:45.319Z,7.95
2019-06-08T05:23:13.157Z,8.95
2019-06-08T05:25:43.101Z,8.18
2019-06-08T05:28:11.751Z,9.95
2019-06-08T05:30:41.266Z,8.10
2019-06-08T05:33:09.962Z,8.20
2019-06-08T05:35:39.401Z,8.08
2019-06-08T05:38:08.164Z,7.47
2019-06-08T05:40:36.895Z,7.75
2019-06-08T05:43:05.659Z,8.20
2019-06-08T05:45:34.389Z,7.75
2019-06-08T05:48:02.919Z,7.03
2019-06-08T05:50:31.491Z,7.10
2019-06-08T05:53:00.099Z,7.40
2019-06-08T05:55:28.799Z,7.05
2019-06-08T05:57:57.391Z,7.22
2019-06-08T06:00:27.177Z,7.67
2019-06-08T06:02:55.785Z,7.00
2019-06-08T06:05:24.520Z,6.80
2019-06-08T06:07:53.161Z,6.10
2019-06-08T06:10:22.142Z,6.95
2019-06-08T06:12:51.183Z,6.65
2019-06-08T06:15:19.894Z,6.58
2019-06-08T06:17:49.790Z,6.00
2019-06-08T06:20:18.687Z,5.85
2019-06-08T06:22:47.687Z,6.45
2019-06-08T06:25:16.910Z,6.03
2019-06-08T06:27:45.598Z,7.15
2019-06-08T06:30:15.527Z,6.20
2019-06-08T06:32:44.138Z,5.55
2019-06-08T06:35:13.081Z,5.75
2019-06-08T06:37:41.851Z,4.90
2019-06-08T06:40:10.728Z,5.58
2019-06-08T06:42:39.489Z,4.95
2019-06-08T06:45:08.674Z,6.70
2019-06-08T06:47:37.461Z,5.20
2019-06-08T06:50:06.988Z,5.03
2019-06-08T06:52:35.675Z,4.58
2019-06-08T06:55:05.673Z,4.80
2019-06-08T06:57:36.419Z,4.78
2019-06-08T07:00:09.409Z,4.97
2019-06-08T07:02:38.098Z,3.98
2019-06-08T07:05:07.514Z,4.50
2019-06-08T07:07:36.277Z,4.28
2019-06-08T07:10:07.796Z,3.92
2019-06-08T07:12:37.472Z,4.30
2019-06-08T07:15:08.292Z,4.20
2019-06-08T07:17:36.926Z,4.25
2019-06-08T07:20:08.190Z,4.25
2019-06-08T07:22:37.238Z,5.15
2019-06-08T07:25:06.043Z,4.28
2019-06-08T07:27:34.627Z,6.37
2019-06-08T07:30:03.358Z,4.12
2019-06-08T07:32:32.891Z,4.15
2019-06-08T07:35:01.490Z,4.30
2019-06-08T07:37:30.143Z,4.10
2019-06-08T07:40:00.181Z,4.92
2019-06-08T07:42:28.963Z,4.80
2019-06-08T07:44:57.533Z,4.62
2019-06-08T07:47:26.201Z,4.45
2019-06-08T07:49:55.626Z,4.50
2019-06-08T07:52:24.229Z,4.30
2019-06-08T07:54:54.640Z,4.75
2019-06-08T07:57:23.314Z,4.20
2019-06-08T07:59:53.188Z,4.45
2019-06-08T08:02:22.409Z,4.10
2019-06-08T08:04:52.416Z,4.00
2019-06-08T08:07:21.203Z,4.30
2019-06-08T08:09:50.591Z,4.40
2019-06-08T08:12:19.229Z,4.75
2019-06-08T08:14:48.756Z,5.17
2019-06-08T08:17:17.552Z,5.10
2019-06-08T08:19:46.190Z,5.20
2019-06-08T08:22:25.061Z,5.42
2019-06-08T08:24:45.122Z,4.95
2019-06-08T08:27:13.790Z,5.58
2019-06-08T08:29:42.453Z,4.78
2019-06-08T08:32:11.126Z,5.10
2019-06-08T08:34:39.830Z,5.00
2019-06-08T08:37:09.707Z,5.05
2019-06-08T08:39:38.582Z,6.03
2019-06-08T08:42:08.431Z,5.30
2019-06-08T08:44:37.957Z,5.45
2019-06-08T08:47:07.707Z,6.53
2019-06-08T08:49:38.016Z,6.03
2019-06-08T08:52:08.787Z,5.72
2019-06-08T08:54:37.830Z,5.90
2019-06-08T08:57:08.422Z,6.55
2019-06-08T08:59:38.213Z,6.80
2019-06-08T09:02:11.049Z,6.12
2019-06-08T09:04:38.094Z,6.60
2019-06-08T09:07:10.305Z,5.92
2019-06-08T09:09:38.687Z,5.90
2019-06-08T09:12:08.340Z,5.67
2019-06-08T09:14:41.139Z,5.92
2019-06-08T09:17:08.618Z,5.67
2019-06-08T09:19:38.275Z,5.40
2019-06-08T09:22:08.612Z,5.47
2019-06-08T09:24:39.008Z,5.08
2019-06-08T09:27:08.221Z,5.60
2019-06-08T09:29:38.835Z,5.22
2019-06-08T09:32:08.190Z,4.30
2019-06-08T09:34:38.656Z,4.55
2019-06-08T09:37:08.389Z,4.47
2019-06-08T09:39:38.524Z,4.55
2019-06-08T09:42:09.060Z,4.10
2019-06-08T09:44:37.962Z,4.40
2019-06-08T09:47:12.408Z,4.65
2019-06-08T09:49:37.703Z,4.35
2019-06-08T09:52:08.596Z,4.00
2019-06-08T09:54:38.491Z,4.33
2019-06-08T09:57:09.113Z,4.50
2019-06-08T09:59:38.616Z,4.45
2019-06-08T10:02:12.478Z,4.30
2019-06-08T10:04:38.699Z,3.50
2019-06-08T10:07:08.792Z,4.07
2019-06-08T10:09:38.222Z,4.22
2019-06-08T10:12:09.714Z,3.72
2019-06-08T10:14:38.024Z,4.15
2019-06-08T10:17:08.984Z,4.33
2019-06-08T10:19:37.126Z,3.70
2019-06-08T10:22:08.403Z,3.42
2019-06-08T10:24:41.166Z,3.72
2019-06-08T10:27:08.582Z,3.90
2019-06-08T10:29:38.293Z,3.50
2019-06-08T10:32:08.923Z,3.47
2019-06-08T10:34:38.670Z,3.60
2019-06-08T10:37:12.712Z,3.95
2019-06-08T10:39:37.975Z,3.47
2019-06-08T10:42:09.780Z,3.52
2019-06-08T10:44:38.222Z,3.87
2019-06-08T10:47:10.006Z,4.62
2019-06-08T10:49:38.432Z,4.08
2019-06-08T10:52:10.666Z,3.98
2019-06-08T10:54:37.927Z,3.93
2019-06-08T10:57:07.621Z,4.20
2019-06-08T10:59:39.944Z,4.40
2019-06-08T11:02:11.811Z,4.28
2019-06-08T11:04:38.817Z,4.43
2019-06-08T11:07:13.201Z,4.50
2019-06-08T11:09:37.989Z,4.70
2019-06-08T11:12:11.939Z,4.87
2019-06-08T11:14:38.157Z,4.87
2019-06-08T11:17:09.943Z,4.17
2019-06-08T11:19:37.771Z,4.67
2019-06-08T11:22:12.306Z,4.15
2019-06-08T11:24:38.820Z,4.28
2019-06-08T11:27:10.584Z,4.53
2019-06-08T11:29:38.404Z,5.28
2019-06-08T11:32:11.843Z,4.42
2019-06-08T11:34:37.865Z,4.40
2019-06-08T11:37:09.869Z,5.33
2019-06-08T11:39:38.186Z,4.25
2019-06-08T11:42:10.700Z,4.30
2019-06-08T11:44:39.031Z,4.25
2019-06-08T11:47:12.274Z,4.35
2019-06-08T11:49:38.249Z,4.00
2019-06-08T11:52:06.997Z,9.75
2019-06-08T11:54:38.038Z,4.35
2019-06-08T11:57:08.400Z,5.05
2019-06-08T11:59:37.471Z,4.60
2019-06-08T12:02:09.011Z,4.63
2019-06-08T12:04:38.400Z,4.47
2019-06-08T12:07:09.108Z,4.47
2019-06-08T12:09:37.278Z,4.87
2019-06-08T12:12:09.064Z,4.55
2019-06-08T12:14:37.612Z,4.72
2019-06-08T12:17:10.846Z,4.92
2019-06-08T12:19:37.702Z,4.60
2019-06-08T12:22:08.766Z,4.20
2019-06-08T12:24:41.995Z,4.30
2019-06-08T12:27:19.039Z,4.70
2019-06-08T12:29:37.287Z,4.30
2019-06-08T12:32:08.936Z,4.15
2019-06-08T12:34:38.400Z,4.45
2019-06-08T12:37:12.138Z,5.47
2019-06-08T12:39:38.753Z,4.67
2019-06-08T12:42:13.883Z,4.83
2019-06-08T12:44:38.231Z,4.95
2019-06-08T12:47:10.659Z,4.90
2019-06-08T12:49:40.110Z,4.95
2019-06-08T12:52:08.645Z,4.75
2019-06-08T12:54:38.064Z,4.90
2019-06-08T12:57:10.235Z,4.80
2019-06-08T12:59:38.523Z,4.95
2019-06-08T13:02:08.741Z,4.65
2019-06-08T13:04:38.434Z,4.10
2019-06-08T13:07:09.739Z,4.35
2019-06-08T13:09:38.429Z,4.40
2019-06-08T13:12:08.001Z,4.33
2019-06-08T13:14:38.527Z,4.70
2019-06-08T13:17:08.635Z,5.05
2019-06-08T13:19:38.680Z,4.58
2019-06-08T13:22:08.834Z,5.20
2019-06-08T13:24:37.869Z,4.60
2019-06-08T13:27:06.828Z,4.33
2019-06-08T13:29:35.617Z,4.55
2019-06-08T13:32:04.349Z,4.28
2019-06-08T13:34:33.102Z,4.60
2019-06-08T13:37:01.750Z,3.98
2019-06-08T13:39:30.328Z,4.33
2019-06-08T13:41:58.898Z,4.35
2019-06-08T13:44:27.969Z,4.37
2019-06-08T13:46:57.834Z,3.98
2019-06-08T13:49:29.714Z,3.85
2019-06-08T13:51:58.431Z,4.63
2019-06-08T13:54:30.917Z,4.55
2019-06-08T13:56:59.022Z,4.67
2019-06-08T13:59:30.680Z,4.28
2019-06-08T14:01:58.546Z,4.95
2019-06-08T14:04:27.303Z,4.75
2019-06-08T14:06:58.123Z,4.10
2019-06-08T14:09:28.445Z,4.17
2019-06-08T14:11:57.756Z,3.75
2019-06-08T14:14:28.861Z,4.17
2019-06-08T14:16:58.639Z,4.33
2019-06-08T14:19:29.769Z,4.25
2019-06-08T14:21:57.535Z,4.28
2019-06-08T14:24:30.045Z,4.17
2019-06-08T14:26:58.308Z,4.00
2019-06-08T14:29:28.717Z,3.37
2019-06-08T14:31:57.746Z,3.62
2019-06-08T14:34:29.114Z,3.77
2019-06-08T14:36:58.952Z,3.58
2019-06-08T14:39:29.650Z,3.70
2019-06-08T14:41:57.813Z,3.60
2019-06-08T14:44:31.365Z,4.05
2019-06-08T14:46:57.898Z,4.20
2019-06-08T14:49:32.772Z,4.35
2019-06-08T14:51:57.904Z,3.80
2019-06-08T14:54:32.445Z,4.10
2019-06-08T14:56:57.777Z,3.57
2019-06-08T14:59:29.625Z,4.25
2019-06-08T15:01:56.956Z,4.05
2019-06-08T15:04:28.524Z,3.80
2019-06-08T15:06:58.448Z,4.03
2019-06-08T15:09:27.527Z,3.55
2019-06-08T15:11:58.152Z,4.17
2019-06-08T15:14:29.303Z,4.63
2019-06-08T15:16:59.042Z,4.20
2019-06-08T15:19:29.502Z,4.65
2019-06-08T15:21:57.803Z,4.30
2019-06-08T15:24:29.008Z,4.10
2019-06-08T15:26:58.313Z,4.58
2019-06-08T15:29:29.136Z,4.30
2019-06-08T15:31:58.171Z,13.15
2019-06-08T15:34:31.111Z,5.17
2019-06-08T15:36:59.952Z,7.00
2019-06-08T15:39:31.894Z,6.83
2019-06-08T15:42:00.187Z,14.98
2019-06-08T15:44:30.390Z,5.10
2019-06-08T15:46:59.218Z,5.72
2019-06-08T15:49:30.365Z,5.37
2019-06-08T15:51:58.811Z,7.47
2019-06-08T15:54:32.230Z,5.72
2019-06-08T15:56:58.468Z,4.97
2019-06-08T15:59:35.018Z,5.15
2019-06-08T16:01:58.209Z,5.15
2019-06-08T16:04:27.755Z,5.53
2019-06-08T16:06:56.480Z,6.62
2019-06-08T16:09:25.962Z,5.67
2019-06-08T16:11:59.603Z,7.37
2019-06-08T16:14:28.841Z,5.30
2019-06-08T16:16:57.462Z,6.60
2019-06-08T16:19:27.352Z,6.80
2019-06-08T16:21:56.234Z,6.12
2019-06-08T16:24:25.751Z,5.25
2019-06-08T16:26:57.540Z,5.67
2019-06-08T16:29:26.808Z,6.45
2019-06-08T16:31:55.640Z,5.97
2019-06-08T16:34:24.212Z,7.28
2019-06-08T16:36:52.905Z,5.53
2019-06-08T16:39:21.744Z,7.03
2019-06-08T16:41:50.938Z,5.20
2019-06-08T16:44:20.921Z,5.40
2019-06-08T16:46:49.482Z,5.58
2019-06-08T16:49:18.154Z,5.25
2019-06-08T16:51:46.694Z,5.42
2019-06-08T16:54:18.634Z,5.70
2019-06-08T16:56:47.257Z,6.50
2019-06-08T16:59:15.826Z,5.62
2019-06-08T17:01:44.485Z,5.95
2019-06-08T17:04:13.366Z,8.28
2019-06-08T17:06:42.286Z,5.78
2019-06-08T17:09:11.919Z,6.65
2019-06-08T17:11:40.572Z,6.33
2019-06-08T17:14:09.295Z,6.42
2019-06-08T17:16:38.825Z,6.37
2019-06-08T17:19:07.522Z,7.00
2019-06-08T17:21:36.413Z,7.60
2019-06-08T17:24:05.132Z,7.95
2019-06-08T17:26:34.647Z,6.70
2019-06-08T17:29:03.305Z,9.53
2019-06-08T17:31:32.998Z,6.97
2019-06-08T17:34:01.680Z,6.92
2019-06-08T17:36:30.378Z,6.70
2019-06-08T17:38:59.115Z,6.87
2019-06-08T17:41:27.775Z,8.00
2019-06-08T17:43:56.373Z,7.72
2019-06-08T17:46:25.003Z,6.92
2019-06-08T17:48:53.611Z,6.53
2019-06-08T17:51:22.324Z,9.40
2019-06-08T17:53:53.296Z,7.33
2019-06-08T17:56:22.002Z,8.45
2019-06-08T17:58:50.598Z,9.30
2019-06-08T18:01:19.255Z,8.43
2019-06-08T18:03:48.319Z,8.25
2019-06-08T18:06:17.940Z,7.55
2019-06-08T18:08:48.044Z,8.05
2019-06-08T18:11:17.439Z,8.70
2019-06-08T18:13:48.418Z,10.20
2019-06-08T18:16:18.401Z,10.55
2019-06-08T18:18:48.073Z,10.75
2019-06-08T18:21:17.827Z,8.75
2019-06-08T18:23:48.166Z,8.68
2019-06-08T18:26:17.293Z,7.20
2019-06-08T18:28:48.358Z,9.38
2019-06-08T18:31:18.113Z,7.58
2019-06-08T18:33:50.090Z,7.00
2019-06-08T18:36:17.472Z,7.47
2019-06-08T18:38:48.381Z,7.50
2019-06-08T18:41:17.661Z,9.30
2019-06-08T18:43:48.886Z,8.35
2019-06-08T18:46:17.983Z,8.53
2019-06-08T18:49:04.704Z,8.48
2019-06-08T18:51:33.763Z,7.80
2019-06-08T18:54:11.298Z,7.25
2019-06-08T18:56:32.901Z,7.80
2019-06-08T18:59:03.659Z,8.10
2019-06-08T19:01:32.374Z,7.40
2019-06-08T19:04:00.943Z,8.35
2019-06-08T19:06:29.638Z,6.65
2019-06-08T19:08:58.391Z,7.28
2019-06-08T19:11:28.621Z,7.58
2019-06-08T19:13:58.039Z,7.90
2019-06-08T19:16:28.493Z,8.23
2019-06-08T19:18:58.091Z,8.08
2019-06-08T19:21:27.808Z,8.20
2019-06-08T19:23:56.903Z,12.75
2019-06-08T19:26:28.016Z,10.80
2019-06-08T19:28:57.786Z,8.88
2019-06-08T19:31:27.639Z,8.33
2019-06-08T19:33:58.059Z,8.65
2019-06-08T19:36:28.028Z,9.33
2019-06-08T19:38:57.705Z,10.50
2019-06-08T19:41:28.285Z,11.53
2019-06-08T19:43:58.376Z,10.95
2019-06-08T19:46:27.280Z,10.40
2019-06-08T19:48:58.767Z,10.35
2019-06-08T19:51:27.817Z,9.70
2019-06-08T19:53:58.323Z,9.40
2019-06-08T19:56:28.214Z,10.68
2019-06-08T19:59:03.870Z,11.57
2019-06-08T20:01:28.421Z,10.25
2019-06-08T20:03:58.006Z,10.72
2019-06-08T20:06:27.934Z,11.10
2019-06-08T20:08:57.589Z,11.15
2019-06-08T20:11:26.235Z,11.22
2019-06-08T20:13:57.297Z,10.50
2019-06-08T20:16:27.725Z,11.50
2019-06-08T20:18:58.290Z,11.60
2019-06-08T20:21:27.558Z,12.23
2019-06-08T20:23:58.343Z,10.48
2019-06-08T20:26:28.462Z,10.18
2019-06-08T20:29:11.548Z,10.10
2019-06-08T20:31:27.438Z,10.95
2019-06-08T20:33:57.642Z,10.90
2019-06-08T20:36:28.700Z,9.20
2019-06-08T20:38:58.392Z,9.55
2019-06-08T20:41:27.762Z,10.65
2019-06-08T20:43:58.005Z,10.58
2019-06-08T20:46:28.599Z,11.10
2019-06-08T20:48:57.708Z,12.43
2019-06-08T20:51:27.834Z,11.93
2019-06-08T20:53:57.341Z,11.95
2019-06-08T20:56:27.996Z,10.20
2019-06-08T20:58:57.420Z,10.90
2019-06-08T21:01:26.169Z,10.20
2019-06-08T21:03:56.968Z,10.85
2019-06-08T21:06:25.055Z,10.15
2019-06-08T21:08:54.844Z,10.93
2019-06-08T21:11:24.046Z,11.22
2019-06-08T21:13:53.919Z,11.15
2019-06-08T21:16:22.923Z,10.38
2019-06-08T21:18:51.567Z,10.58
2019-06-08T21:21:20.229Z,11.40
2019-06-08T21:23:52.545Z,11.85
2019-06-08T21:26:19.124Z,11.65
2019-06-08T21:28:51.261Z,11.80
2019-06-08T21:31:18.087Z,11.88
2019-06-08T21:33:49.103Z,11.85
2019-06-08T21:36:18.163Z,14.03
2019-06-08T21:38:50.260Z,12.68
2019-06-08T21:41:17.318Z,13.20
2019-06-08T21:43:48.930Z,13.50
2019-06-08T21:46:16.230Z,13.60
2019-06-08T21:48:44.806Z,11.97
2019-06-08T21:51:13.384Z,10.85
2019-06-08T21:53:41.992Z,11.53
2019-06-08T21:56:10.654Z,10.68
2019-06-08T21:58:39.291Z,11.03
2019-06-08T22:01:08.162Z,11.93
2019-06-08T22:03:38.070Z,11.40
2019-06-08T22:06:07.875Z,11.97
2019-06-08T22:08:37.621Z,12.05
2019-06-08T22:11:08.575Z,11.30
2019-06-08T22:13:37.481Z,11.15
2019-06-08T22:16:08.084Z,11.40
2019-06-08T22:18:38.083Z,10.75
2019-06-08T22:21:08.111Z,10.95
2019-06-08T22:23:36.943Z,10.78
2019-06-08T22:26:08.091Z,9.98
2019-06-08T22:28:37.733Z,9.63
2019-06-08T22:31:08.021Z,9.78
2019-06-08T22:33:37.870Z,10.70
2019-06-08T22:36:08.884Z,10.40
2019-06-08T22:38:37.354Z,10.23
2019-06-08T22:41:08.074Z,11.05
2019-06-08T22:43:37.426Z,11.18
2019-06-08T22:46:08.318Z,10.70
2019-06-08T22:48:38.447Z,10.50
2019-06-08T22:51:08.010Z,10.82
2019-06-08T22:53:38.352Z,11.60
2019-06-08T22:56:08.067Z,12.80
2019-06-08T22:58:37.506Z,11.78
2019-06-08T23:01:08.650Z,10.93
2019-06-08T23:03:36.390Z,12.05
2019-06-08T23:06:08.170Z,12.07
2019-06-08T23:08:37.552Z,11.68
2019-06-08T23:11:08.278Z,12.20
2019-06-08T23:13:37.698Z,12.13
2019-06-08T23:16:08.909Z,12.40
2019-06-08T23:18:37.426Z,10.98
2019-06-08T23:21:08.715Z,10.93
2019-06-08T23:23:38.094Z,11.08
2019-06-08T23:26:10.189Z,13.00
2019-06-08T23:28:37.750Z,13.00
2019-06-08T23:31:19.354Z,12.95
2019-06-08T23:33:38.728Z,12.98
2019-06-08T23:36:40.166Z,13.45
2019-06-08T23:38:37.448Z,12.68
2019-06-08T23:41:08.747Z,12.30
2019-06-08T23:43:38.324Z,13.88
2019-06-08T23:46:08.012Z,12.50
2019-06-08T23:48:37.433Z,11.70
2019-06-08T23:51:09.111Z,12.70
2019-06-08T23:53:38.180Z,13.28
2019-06-08T23:56:11.304Z,13.28
2019-06-08T23:58:37.347Z,13.20
